Flight Track Log - Related Links

Times and Time Zones

All times are in EDT time to prevent confusion due to time zone crossing. See the ASQ6108 flight status page for this flight to view local times or setup timezone preferences in your user account.

Time Position Orientation Groundspeed Altitude Reporting Facility
EDT Latitude Longitude Course Direction KTS MPH feet Rate Location/Type
Sun 12:19:27 PM 41.4236 -81.8264 118° Southeast 181 208 1,900  Level Cleveland Center
Sun 12:20:04 PM 41.4367 -81.7853 67° East 196 226 3,300 2,057 Climbing Cleveland Center
Sun 12:21:12 PM 41.4269 -81.7075 99° East 263 303 5,500 2,203 Climbing Cleveland Center
Sun 12:22:00 PM 41.2085 -81.4213 118° Southeast  Level FlightAware Approximate
Sun 12:22:12 PM 41.3756 -81.6483 139° Southeast 252 290 8,000  Level Cleveland Center
Sun 12:23:00 PM 41.1541 -81.3196 127° Southeast  Level FlightAware Approximate
Sun 12:23:12 PM 41.3242 -81.5592 127° Southeast 263 303 10,600  Level Cleveland Center
Sun 12:24:00 PM 41.1053 -81.2132 118° Southeast  Level FlightAware Approximate
Sun 12:24:12 PM 41.2664 -81.4753 132° Southeast 285 328 11,300  Level Cleveland Center
Sun 12:25:12 PM 41.1772 -81.4244 157° South 321 369 12,500 1,550 Climbing Cleveland Center
Sun 12:26:12 PM 41.0817 -81.3792 160° South 353 406 14,400 1,850 Climbing Cleveland Center
Sun 12:27:12 PM 40.9922 -81.3342 159° South 360 414 16,200 1,800 Climbing Cleveland Center
Sun 12:28:12 PM 40.9008 -81.2836 157° South 360 414 18,000 1,650 Climbing Cleveland Center
Sun 12:29:12 PM 40.8117 -81.2361 158° South 348 400 19,500 1,500 Climbing Cleveland Center
Sun 12:30:12 PM 40.7347 -81.1969 159° South 348 400 21,000 1,550 Climbing Cleveland Center
Sun 12:31:12 PM 40.6453 -81.1494 158° South 342 394 22,600 1,600 Climbing Cleveland Center
Sun 12:32:12 PM 40.5622 -81.0997 156° South 336 387 24,200 1,550 Climbing Cleveland Center
Sun 12:33:12 PM 40.4747 -81.0525 158° South 336 387 25,700 1,350 Climbing Cleveland Center
Sun 12:34:12 PM 40.3853 -81.0083 159° South 336 387 26,900 1,100 Climbing Cleveland Center
Sun 12:35:12 PM 40.2936 -80.9586 158° South 341 392 27,900 1,000 Climbing Cleveland Center
Sun 12:36:12 PM 40.1981 -80.9092 158° South 352 405 28,900 1,050 Climbing Cleveland Center
Sun 12:37:12 PM 40.1003 -80.8600 159° South 371 427 30,000 1,050 Climbing Cleveland Center
Sun 12:38:12 PM 40.0044 -80.8000 154° Southeast 371 427 31,000 500 Climbing Cleveland Center
Sun 12:39:12 PM 39.9294 -80.6914 132° Southeast 383 441 31,000  Level Cleveland Center
Sun 12:40:12 PM 39.8461 -80.5803 134° Southeast 406 467 31,000  Level Cleveland Center
Sun 12:41:12 PM 39.7628 -80.4617 132° Southeast 428 493 31,000  Level Cleveland Center
Sun 12:42:12 PM 39.6772 -80.3431 133° Southeast 443 510 31,000  Level Cleveland Center
Sun 12:43:12 PM 39.5892 -80.2222 133° Southeast 455 524 31,000  Level Cleveland Center
Sun 12:44:12 PM 39.5014 -80.1069 135° Southeast 450 518 31,000  Level Cleveland Center
Sun 12:45:12 PM 39.4194 -79.9919 133° Southeast 445 512 31,000 -43 Level Cleveland Center
Sun 12:46:31 PM 39.3058 -79.8244 131° Southeast 439 505 30,900 -857 Descending Washington Center
Sun 12:47:32 PM 39.2839 -79.6756 101° East 413 475 29,000 -1,934 Descending Washington Center
Sun 12:48:32 PM 39.2722 -79.5247 96° East 413 475 27,000 -1,488 Descending Washington Center
Sun 12:49:33 PM 39.2603 -79.3767 96° East 413 475 26,000 -496 Descending Washington Center
Sun 12:50:33 PM 39.2461 -79.2339 97° East 413 475 26,000 -814 Level Washington Center
Sun 12:51:31 PM 39.2336 -79.0886 96° East 408 470 24,400 -1,780 Descending Washington Center
Sun 12:52:31 PM 39.2208 -78.9514 97° East 402 463 22,500 -1,950 Descending Washington Center
Sun 12:53:31 PM 39.2081 -78.8142 97° East 396 456 20,500 -1,983 Descending Washington Center
Sun 12:54:32 PM 39.1947 -78.6794 97° East 385 443 18,500 -1,820 Descending Washington Center
Sun 12:55:33 PM 39.1833 -78.5506 96° East 385 443 16,800 -1,714 Descending Washington Center
Sun 12:56:31 PM 39.1697 -78.4267 98° East 365 420 15,100 -908 Descending Washington Center
Sun 12:57:32 PM 39.1494 -78.3083 102° East 344 396 15,000 -197 Descending Washington Center
Sun 12:58:33 PM 39.1208 -78.1947 108° East 339 390 14,700 -645 Descending Washington Center
Sun 12:59:33 PM 39.0900 -78.0761 108° East 344 396 13,700 -1,017 Descending Washington Center
Sun 01:00:31 PM 39.0631 -77.9628 107° East 344 396 12,700 -950 Descending Washington Center
Sun 01:01:33 PM 39.0378 -77.8658 109° East 333 383 11,800 -836 Descending Washington Center
Sun 01:02:33 PM 39.0067 -77.7472 109° East 324 373 11,000 -864 Descending Washington Center
Sun 01:03:31 PM 38.9811 -77.6558 110° East 313 360 10,100 -1,338 Descending Washington Center
Sun 01:04:43 PM 38.9500 -77.5333 108° East 274 315 8,100 -955 Descending Potomac TRACON
Sun 01:05:43 PM 38.9333 -77.4333 102° East 244 281 8,000 -600 Descending Potomac TRACON
Sun 01:06:43 PM 38.9667 -77.3667 57° Northeast 242 278 6,900 -1,100 Descending Potomac TRACON
Sun 01:07:43 PM 39.0000 -77.3000 57° Northeast 237 273 5,800 -1,100 Descending Potomac TRACON
Sun 01:08:43 PM 39.0167 -77.2333 72° East 197 227 4,700 -1,100 Descending Potomac TRACON
Sun 01:09:43 PM 38.9833 -77.1833 131° Southeast 173 199 3,600 -1,096 Descending Potomac TRACON
Sun 01:10:38 PM 38.9500 -77.1333 131° Southeast 174 200 2,600 -1,091 Descending Potomac TRACON

Login

Don't have an account? Register now (free) for customized features, flight alerts, and more!